sensor_id;sensor_type;location;lat;lon;timestamp;P1;durP1;ratioP1;P2;durP2;ratioP2
57317;SDS011;43157;50.982;18.132;2023-09-19T00:01:40;19.70;;;10.40;;
57317;SDS011;43157;50.982;18.132;2023-09-19T00:04:07;17.20;;;10.50;;
57317;SDS011;43157;50.982;18.132;2023-09-19T00:06:36;19.40;;;10.60;;
57317;SDS011;43157;50.982;18.132;2023-09-19T00:09:03;19.90;;;10.60;;
57317;SDS011;43157;50.982;18.132;2023-09-19T00:11:29;18.00;;;10.60;;
57317;SDS011;43157;50.982;18.132;2023-09-19T00:13:55;16.00;;;9.90;;
57317;SDS011;43157;50.982;18.132;2023-09-19T00:16:23;20.80;;;10.90;;
57317;SDS011;43157;50.982;18.132;2023-09-19T00:18:49;20.10;;;11.10;;
57317;SDS011;43157;50.982;18.132;2023-09-19T00:21:15;18.60;;;11.90;;
57317;SDS011;43157;50.982;18.132;2023-09-19T00:23:41;20.10;;;10.80;;
57317;SDS011;43157;50.982;18.132;2023-09-19T00:26:07;20.10;;;11.30;;
57317;SDS011;43157;50.982;18.132;2023-09-19T00:28:34;20.60;;;11.90;;
57317;SDS011;43157;50.982;18.132;2023-09-19T00:31:00;21.10;;;11.20;;
57317;SDS011;43157;50.982;18.132;2023-09-19T00:33:27;22.10;;;11.80;;
57317;SDS011;43157;50.982;18.132;2023-09-19T00:35:55;21.30;;;10.90;;
57317;SDS011;43157;50.982;18.132;2023-09-19T00:38:23;20.60;;;11.30;;
57317;SDS011;43157;50.982;18.132;2023-09-19T00:40:52;17.20;;;10.40;;
57317;SDS011;43157;50.982;18.132;2023-09-19T00:43:19;17.50;;;10.60;;
57317;SDS011;43157;50.982;18.132;2023-09-19T00:45:47;17.50;;;10.90;;
57317;SDS011;43157;50.982;18.132;2023-09-19T00:48:15;19.90;;;12.10;;
57317;SDS011;43157;50.982;18.132;2023-09-19T00:50:41;23.40;;;11.50;;
57317;SDS011;43157;50.982;18.132;2023-09-19T00:53:09;17.50;;;10.50;;
57317;SDS011;43157;50.982;18.132;2023-09-19T00:55:39;18.90;;;10.70;;
57317;SDS011;43157;50.982;18.132;2023-09-19T00:58:09;19.10;;;10.80;;
57317;SDS011;43157;50.982;18.132;2023-09-19T01:00:36;17.70;;;9.90;;
57317;SDS011;43157;50.982;18.132;2023-09-19T01:03:02;18.80;;;10.90;;
57317;SDS011;43157;50.982;18.132;2023-09-19T01:05:29;17.90;;;10.60;;
57317;SDS011;43157;50.982;18.132;2023-09-19T01:07:55;20.80;;;10.80;;
57317;SDS011;43157;50.982;18.132;2023-09-19T01:10:22;21.60;;;10.40;;
57317;SDS011;43157;50.982;18.132;2023-09-19T01:18:11;17.90;;;9.80;;
57317;SDS011;43157;50.982;18.132;2023-09-19T01:29:44;19.50;;;11.30;;
57317;SDS011;43157;50.982;18.132;2023-09-19T01:32:13;17.60;;;11.10;;
57317;SDS011;43157;50.982;18.132;2023-09-19T01:34:43;21.80;;;11.20;;
57317;SDS011;43157;50.982;18.132;2023-09-19T01:37:14;18.90;;;10.50;;
57317;SDS011;43157;50.982;18.132;2023-09-19T01:39:49;20.00;;;10.60;;
57317;SDS011;43157;50.982;18.132;2023-09-19T01:44:59;23.00;;;11.70;;
57317;SDS011;43157;50.982;18.132;2023-09-19T01:47:54;18.80;;;10.60;;
57317;SDS011;43157;50.982;18.132;2023-09-19T01:50:44;16.90;;;10.30;;
57317;SDS011;43157;50.982;18.132;2023-09-19T01:53:36;22.80;;;13.70;;
57317;SDS011;43157;50.982;18.132;2023-09-19T01:56:12;21.90;;;14.40;;
57317;SDS011;43157;50.982;18.132;2023-09-19T01:58:45;21.50;;;13.60;;
57317;SDS011;43157;50.982;18.132;2023-09-19T02:01:14;24.90;;;15.70;;
57317;SDS011;43157;50.982;18.132;2023-09-19T02:03:43;26.50;;;15.30;;
57317;SDS011;43157;50.982;18.132;2023-09-19T02:06:16;26.30;;;14.90;;
57317;SDS011;43157;50.982;18.132;2023-09-19T02:08:44;25.10;;;15.50;;
57317;SDS011;43157;50.982;18.132;2023-09-19T02:11:11;20.30;;;12.20;;
57317;SDS011;43157;50.982;18.132;2023-09-19T02:13:38;21.10;;;12.70;;
57317;SDS011;43157;50.982;18.132;2023-09-19T02:16:05;20.30;;;13.10;;
57317;SDS011;43157;50.982;18.132;2023-09-19T02:18:32;21.70;;;13.50;;
57317;SDS011;43157;50.982;18.132;2023-09-19T02:21:03;23.50;;;12.60;;
57317;SDS011;43157;50.982;18.132;2023-09-19T02:23:30;19.90;;;12.70;;
57317;SDS011;43157;50.982;18.132;2023-09-19T02:25:56;19.20;;;12.40;;
57317;SDS011;43157;50.982;18.132;2023-09-19T02:28:23;20.00;;;12.60;;
57317;SDS011;43157;50.982;18.132;2023-09-19T02:30:49;19.30;;;12.80;;
57317;SDS011;43157;50.982;18.132;2023-09-19T02:33:16;19.80;;;12.60;;
57317;SDS011;43157;50.982;18.132;2023-09-19T02:35:42;19.50;;;11.90;;
57317;SDS011;43157;50.982;18.132;2023-09-19T02:38:09;21.70;;;12.40;;
57317;SDS011;43157;50.982;18.132;2023-09-19T02:40:37;20.20;;;11.10;;
57317;SDS011;43157;50.982;18.132;2023-09-19T02:43:03;20.00;;;12.50;;
57317;SDS011;43157;50.982;18.132;2023-09-19T02:45:30;19.90;;;12.10;;
57317;SDS011;43157;50.982;18.132;2023-09-19T02:47:57;17.80;;;11.70;;
57317;SDS011;43157;50.982;18.132;2023-09-19T02:50:24;21.20;;;12.00;;
57317;SDS011;43157;50.982;18.132;2023-09-19T02:52:50;21.60;;;12.70;;
57317;SDS011;43157;50.982;18.132;2023-09-19T02:55:16;22.40;;;12.30;;
57317;SDS011;43157;50.982;18.132;2023-09-19T03:00:14;20.80;;;12.50;;
57317;SDS011;43157;50.982;18.132;2023-09-19T03:02:42;20.40;;;12.80;;
57317;SDS011;43157;50.982;18.132;2023-09-19T03:05:08;18.90;;;11.60;;
57317;SDS011;43157;50.982;18.132;2023-09-19T03:07:36;23.50;;;13.20;;
57317;SDS011;43157;50.982;18.132;2023-09-19T03:10:05;23.10;;;12.90;;
57317;SDS011;43157;50.982;18.132;2023-09-19T03:12:33;22.20;;;12.90;;
57317;SDS011;43157;50.982;18.132;2023-09-19T03:14:59;20.70;;;13.70;;
57317;SDS011;43157;50.982;18.132;2023-09-19T03:17:26;20.80;;;13.50;;
57317;SDS011;43157;50.982;18.132;2023-09-19T03:19:52;22.90;;;13.30;;
57317;SDS011;43157;50.982;18.132;2023-09-19T03:22:20;21.70;;;13.00;;
57317;SDS011;43157;50.982;18.132;2023-09-19T03:24:46;21.50;;;13.70;;
57317;SDS011;43157;50.982;18.132;2023-09-19T03:27:12;21.10;;;12.70;;
57317;SDS011;43157;50.982;18.132;2023-09-19T03:29:42;20.70;;;12.30;;
57317;SDS011;43157;50.982;18.132;2023-09-19T03:32:08;18.50;;;11.80;;
57317;SDS011;43157;50.982;18.132;2023-09-19T03:34:37;21.50;;;12.40;;
57317;SDS011;43157;50.982;18.132;2023-09-19T03:37:08;22.20;;;12.10;;
57317;SDS011;43157;50.982;18.132;2023-09-19T03:39:34;19.10;;;11.10;;
57317;SDS011;43157;50.982;18.132;2023-09-19T03:42:01;18.30;;;10.20;;
57317;SDS011;43157;50.982;18.132;2023-09-19T03:44:29;24.50;;;10.40;;
57317;SDS011;43157;50.982;18.132;2023-09-19T03:46:56;17.90;;;9.50;;
57317;SDS011;43157;50.982;18.132;2023-09-19T03:49:22;17.80;;;9.70;;
57317;SDS011;43157;50.982;18.132;2023-09-19T03:51:48;17.10;;;8.60;;
57317;SDS011;43157;50.982;18.132;2023-09-19T03:54:14;14.70;;;8.20;;
57317;SDS011;43157;50.982;18.132;2023-09-19T03:56:42;16.20;;;8.60;;
57317;SDS011;43157;50.982;18.132;2023-09-19T03:59:09;16.70;;;8.40;;
57317;SDS011;43157;50.982;18.132;2023-09-19T04:14:12;9.80;;;4.70;;
57317;SDS011;43157;50.982;18.132;2023-09-19T04:16:38;11.70;;;3.90;;
57317;SDS011;43157;50.982;18.132;2023-09-19T04:19:04;11.80;;;4.30;;
57317;SDS011;43157;50.982;18.132;2023-09-19T04:21:31;11.30;;;3.90;;
57317;SDS011;43157;50.982;18.132;2023-09-19T04:23:57;12.60;;;4.10;;
57317;SDS011;43157;50.982;18.132;2023-09-19T04:26:23;9.90;;;3.40;;
57317;SDS011;43157;50.982;18.132;2023-09-19T04:28:51;10.20;;;4.00;;
57317;SDS011;43157;50.982;18.132;2023-09-19T04:31:17;12.10;;;3.80;;
57317;SDS011;43157;50.982;18.132;2023-09-19T04:33:45;10.00;;;3.90;;
57317;SDS011;43157;50.982;18.132;2023-09-19T04:36:11;9.90;;;3.30;;
57317;SDS011;43157;50.982;18.132;2023-09-19T04:38:38;9.80;;;3.70;;
57317;SDS011;43157;50.982;18.132;2023-09-19T04:41:04;9.70;;;3.40;;
57317;SDS011;43157;50.982;18.132;2023-09-19T04:43:31;8.10;;;3.10;;
57317;SDS011;43157;50.982;18.132;2023-09-19T04:45:57;10.80;;;3.40;;
57317;SDS011;43157;50.982;18.132;2023-09-19T04:48:25;8.70;;;3.10;;
57317;SDS011;43157;50.982;18.132;2023-09-19T04:50:52;9.80;;;2.80;;
57317;SDS011;43157;50.982;18.132;2023-09-19T04:53:18;10.40;;;2.90;;
57317;SDS011;43157;50.982;18.132;2023-09-19T04:55:49;13.40;;;3.40;;
57317;SDS011;43157;50.982;18.132;2023-09-19T04:58:18;8.50;;;3.10;;
57317;SDS011;43157;50.982;18.132;2023-09-19T05:00:45;11.70;;;2.80;;
57317;SDS011;43157;50.982;18.132;2023-09-19T05:03:11;10.90;;;3.30;;
57317;SDS011;43157;50.982;18.132;2023-09-19T05:05:38;10.50;;;2.90;;
57317;SDS011;43157;50.982;18.132;2023-09-19T05:08:04;8.90;;;2.90;;
57317;SDS011;43157;50.982;18.132;2023-09-19T05:10:31;10.40;;;3.10;;
57317;SDS011;43157;50.982;18.132;2023-09-19T05:12:58;12.10;;;2.90;;
57317;SDS011;43157;50.982;18.132;2023-09-19T05:15:24;8.40;;;3.00;;
57317;SDS011;43157;50.982;18.132;2023-09-19T05:17:50;8.90;;;2.80;;
57317;SDS011;43157;50.982;18.132;2023-09-19T05:20:20;6.60;;;2.20;;
57317;SDS011;43157;50.982;18.132;2023-09-19T05:22:59;9.20;;;2.70;;
57317;SDS011;43157;50.982;18.132;2023-09-19T05:25:33;11.40;;;2.60;;
57317;SDS011;43157;50.982;18.132;2023-09-19T05:28:03;9.60;;;2.00;;
57317;SDS011;43157;50.982;18.132;2023-09-19T05:30:31;7.90;;;2.00;;
57317;SDS011;43157;50.982;18.132;2023-09-19T05:32:57;7.60;;;2.10;;
57317;SDS011;43157;50.982;18.132;2023-09-19T05:35:24;10.00;;;2.60;;
57317;SDS011;43157;50.982;18.132;2023-09-19T05:37:50;10.20;;;2.10;;
57317;SDS011;43157;50.982;18.132;2023-09-19T05:40:19;7.70;;;1.90;;
57317;SDS011;43157;50.982;18.132;2023-09-19T05:42:45;10.40;;;2.10;;
57317;SDS011;43157;50.982;18.132;2023-09-19T05:45:12;11.40;;;2.30;;
57317;SDS011;43157;50.982;18.132;2023-09-19T05:47:41;9.20;;;2.10;;
57317;SDS011;43157;50.982;18.132;2023-09-19T05:50:11;7.10;;;1.50;;
57317;SDS011;43157;50.982;18.132;2023-09-19T05:52:37;9.00;;;1.90;;
57317;SDS011;43157;50.982;18.132;2023-09-19T05:55:06;9.80;;;1.80;;
57317;SDS011;43157;50.982;18.132;2023-09-19T05:57:33;8.30;;;2.70;;
57317;SDS011;43157;50.982;18.132;2023-09-19T06:00:00;11.90;;;2.50;;
57317;SDS011;43157;50.982;18.132;2023-09-19T06:02:26;11.80;;;3.00;;
57317;SDS011;43157;50.982;18.132;2023-09-19T06:04:54;14.10;;;3.10;;
57317;SDS011;43157;50.982;18.132;2023-09-19T06:07:21;13.20;;;3.50;;
57317;SDS011;43157;50.982;18.132;2023-09-19T06:09:51;9.00;;;2.70;;
57317;SDS011;43157;50.982;18.132;2023-09-19T06:12:21;9.70;;;2.40;;
57317;SDS011;43157;50.982;18.132;2023-09-19T06:14:47;12.10;;;2.50;;
57317;SDS011;43157;50.982;18.132;2023-09-19T06:17:14;12.50;;;2.30;;
57317;SDS011;43157;50.982;18.132;2023-09-19T06:19:41;10.30;;;2.80;;
57317;SDS011;43157;50.982;18.132;2023-09-19T06:22:09;10.10;;;2.60;;
57317;SDS011;43157;50.982;18.132;2023-09-19T06:24:35;8.50;;;2.60;;
57317;SDS011;43157;50.982;18.132;2023-09-19T06:27:02;8.50;;;2.40;;
57317;SDS011;43157;50.982;18.132;2023-09-19T06:29:29;8.70;;;2.30;;
57317;SDS011;43157;50.982;18.132;2023-09-19T06:31:55;7.70;;;1.80;;
57317;SDS011;43157;50.982;18.132;2023-09-19T06:34:22;8.40;;;2.10;;
57317;SDS011;43157;50.982;18.132;2023-09-19T06:36:48;7.90;;;1.90;;
57317;SDS011;43157;50.982;18.132;2023-09-19T06:39:14;12.50;;;2.40;;
57317;SDS011;43157;50.982;18.132;2023-09-19T06:41:41;9.20;;;2.30;;
57317;SDS011;43157;50.982;18.132;2023-09-19T06:44:07;7.40;;;1.90;;
57317;SDS011;43157;50.982;18.132;2023-09-19T06:46:35;8.40;;;1.80;;
57317;SDS011;43157;50.982;18.132;2023-09-19T06:49:04;8.60;;;2.00;;
57317;SDS011;43157;50.982;18.132;2023-09-19T06:51:32;8.00;;;1.80;;
57317;SDS011;43157;50.982;18.132;2023-09-19T06:54:00;8.70;;;1.90;;
57317;SDS011;43157;50.982;18.132;2023-09-19T06:56:27;8.40;;;1.30;;
57317;SDS011;43157;50.982;18.132;2023-09-19T06:58:53;7.50;;;1.70;;
57317;SDS011;43157;50.982;18.132;2023-09-19T07:01:19;8.60;;;1.60;;
57317;SDS011;43157;50.982;18.132;2023-09-19T07:03:46;8.50;;;1.60;;
57317;SDS011;43157;50.982;18.132;2023-09-19T07:06:12;6.00;;;1.60;;
57317;SDS011;43157;50.982;18.132;2023-09-19T07:08:38;6.70;;;1.30;;
57317;SDS011;43157;50.982;18.132;2023-09-19T07:11:04;5.30;;;1.00;;
57317;SDS011;43157;50.982;18.132;2023-09-19T07:13:31;5.10;;;1.00;;
57317;SDS011;43157;50.982;18.132;2023-09-19T07:15:58;4.20;;;0.90;;
57317;SDS011;43157;50.982;18.132;2023-09-19T07:18:25;7.30;;;1.10;;
57317;SDS011;43157;50.982;18.132;2023-09-19T07:20:51;4.80;;;1.00;;
57317;SDS011;43157;50.982;18.132;2023-09-19T07:25:48;5.90;;;0.70;;
57317;SDS011;43157;50.982;18.132;2023-09-19T07:28:15;5.70;;;1.00;;
57317;SDS011;43157;50.982;18.132;2023-09-19T07:30:41;7.50;;;1.00;;
57317;SDS011;43157;50.982;18.132;2023-09-19T07:33:07;5.70;;;0.90;;
57317;SDS011;43157;50.982;18.132;2023-09-19T07:35:37;7.70;;;0.90;;
57317;SDS011;43157;50.982;18.132;2023-09-19T07:38:06;7.90;;;1.40;;
57317;SDS011;43157;50.982;18.132;2023-09-19T07:40:33;11.10;;;0.90;;
57317;SDS011;43157;50.982;18.132;2023-09-19T07:42:59;7.50;;;1.10;;
57317;SDS011;43157;50.982;18.132;2023-09-19T07:45:30;6.40;;;1.30;;
57317;SDS011;43157;50.982;18.132;2023-09-19T07:47:57;6.60;;;1.20;;
57317;SDS011;43157;50.982;18.132;2023-09-19T07:50:23;7.10;;;1.10;;
57317;SDS011;43157;50.982;18.132;2023-09-19T07:52:49;7.00;;;1.30;;
57317;SDS011;43157;50.982;18.132;2023-09-19T07:55:19;5.90;;;1.00;;
57317;SDS011;43157;50.982;18.132;2023-09-19T07:57:49;6.50;;;1.10;;
57317;SDS011;43157;50.982;18.132;2023-09-19T08:00:15;5.70;;;1.30;;
57317;SDS011;43157;50.982;18.132;2023-09-19T08:02:42;5.80;;;1.30;;
57317;SDS011;43157;50.982;18.132;2023-09-19T08:05:08;6.10;;;0.90;;
57317;SDS011;43157;50.982;18.132;2023-09-19T08:07:35;5.70;;;1.20;;
57317;SDS011;43157;50.982;18.132;2023-09-19T08:10:05;5.00;;;1.40;;
57317;SDS011;43157;50.982;18.132;2023-09-19T08:12:33;5.20;;;1.00;;
57317;SDS011;43157;50.982;18.132;2023-09-19T08:15:04;5.70;;;0.90;;
57317;SDS011;43157;50.982;18.132;2023-09-19T08:17:34;10.20;;;1.40;;
57317;SDS011;43157;50.982;18.132;2023-09-19T08:20:01;6.30;;;1.30;;
57317;SDS011;43157;50.982;18.132;2023-09-19T08:22:28;7.20;;;1.30;;
57317;SDS011;43157;50.982;18.132;2023-09-19T08:24:54;8.30;;;1.60;;
57317;SDS011;43157;50.982;18.132;2023-09-19T08:27:21;8.80;;;1.40;;
57317;SDS011;43157;50.982;18.132;2023-09-19T08:29:48;7.80;;;1.40;;
57317;SDS011;43157;50.982;18.132;2023-09-19T08:32:15;6.70;;;1.50;;
57317;SDS011;43157;50.982;18.132;2023-09-19T08:34:41;5.90;;;1.20;;
57317;SDS011;43157;50.982;18.132;2023-09-19T08:37:08;5.70;;;1.20;;
57317;SDS011;43157;50.982;18.132;2023-09-19T08:39:34;7.50;;;1.60;;
57317;SDS011;43157;50.982;18.132;2023-09-19T08:42:02;7.50;;;1.50;;
57317;SDS011;43157;50.982;18.132;2023-09-19T08:44:30;6.30;;;1.30;;
57317;SDS011;43157;50.982;18.132;2023-09-19T08:47:00;5.80;;;1.10;;
57317;SDS011;43157;50.982;18.132;2023-09-19T08:49:37;8.50;;;1.50;;
57317;SDS011;43157;50.982;18.132;2023-09-19T08:52:25;6.30;;;1.20;;
57317;SDS011;43157;50.982;18.132;2023-09-19T08:54:55;6.40;;;1.10;;
57317;SDS011;43157;50.982;18.132;2023-09-19T08:57:28;3.90;;;0.90;;
57317;SDS011;43157;50.982;18.132;2023-09-19T08:59:55;7.20;;;1.30;;
57317;SDS011;43157;50.982;18.132;2023-09-19T09:02:22;7.70;;;1.30;;
57317;SDS011;43157;50.982;18.132;2023-09-19T09:04:49;5.20;;;1.10;;
57317;SDS011;43157;50.982;18.132;2023-09-19T09:07:15;6.30;;;1.50;;
57317;SDS011;43157;50.982;18.132;2023-09-19T09:09:42;6.80;;;1.70;;
57317;SDS011;43157;50.982;18.132;2023-09-19T09:12:13;5.30;;;1.30;;
57317;SDS011;43157;50.982;18.132;2023-09-19T09:14:47;6.30;;;1.40;;
57317;SDS011;43157;50.982;18.132;2023-09-19T09:17:14;4.70;;;1.50;;
57317;SDS011;43157;50.982;18.132;2023-09-19T09:19:40;8.30;;;1.70;;
57317;SDS011;43157;50.982;18.132;2023-09-19T09:22:08;8.30;;;1.70;;
57317;SDS011;43157;50.982;18.132;2023-09-19T09:24:35;6.60;;;1.50;;
57317;SDS011;43157;50.982;18.132;2023-09-19T09:27:04;5.90;;;1.70;;
57317;SDS011;43157;50.982;18.132;2023-09-19T09:29:41;4.70;;;1.10;;
57317;SDS011;43157;50.982;18.132;2023-09-19T09:34:59;8.90;;;1.60;;
57317;SDS011;43157;50.982;18.132;2023-09-19T09:37:26;6.80;;;1.50;;
57317;SDS011;43157;50.982;18.132;2023-09-19T09:39:54;6.60;;;1.50;;
57317;SDS011;43157;50.982;18.132;2023-09-19T09:42:37;8.00;;;1.50;;
57317;SDS011;43157;50.982;18.132;2023-09-19T09:45:13;7.70;;;1.50;;
57317;SDS011;43157;50.982;18.132;2023-09-19T09:47:54;7.40;;;1.50;;
57317;SDS011;43157;50.982;18.132;2023-09-19T09:53:01;8.30;;;2.10;;
57317;SDS011;43157;50.982;18.132;2023-09-19T09:58:33;10.20;;;1.90;;
57317;SDS011;43157;50.982;18.132;2023-09-19T10:01:00;8.90;;;1.90;;
57317;SDS011;43157;50.982;18.132;2023-09-19T10:03:43;7.80;;;1.70;;
57317;SDS011;43157;50.982;18.132;2023-09-19T10:06:17;5.30;;;1.40;;
57317;SDS011;43157;50.982;18.132;2023-09-19T10:09:02;8.60;;;1.90;;
57317;SDS011;43157;50.982;18.132;2023-09-19T10:11:42;7.80;;;1.70;;
57317;SDS011;43157;50.982;18.132;2023-09-19T10:14:13;5.60;;;1.60;;
57317;SDS011;43157;50.982;18.132;2023-09-19T10:16:48;7.30;;;2.10;;
57317;SDS011;43157;50.982;18.132;2023-09-19T10:19:21;9.80;;;2.00;;
57317;SDS011;43157;50.982;18.132;2023-09-19T10:21:50;9.50;;;2.20;;
57317;SDS011;43157;50.982;18.132;2023-09-19T10:24:16;6.50;;;1.80;;
57317;SDS011;43157;50.982;18.132;2023-09-19T10:26:43;8.20;;;1.90;;
57317;SDS011;43157;50.982;18.132;2023-09-19T10:29:11;7.90;;;1.80;;
57317;SDS011;43157;50.982;18.132;2023-09-19T10:31:39;8.20;;;1.70;;
57317;SDS011;43157;50.982;18.132;2023-09-19T10:34:15;9.20;;;1.60;;
57317;SDS011;43157;50.982;18.132;2023-09-19T10:36:46;8.40;;;1.90;;
57317;SDS011;43157;50.982;18.132;2023-09-19T10:39:13;7.60;;;2.60;;
57317;SDS011;43157;50.982;18.132;2023-09-19T10:41:44;9.20;;;1.90;;
57317;SDS011;43157;50.982;18.132;2023-09-19T10:44:25;10.00;;;2.00;;
57317;SDS011;43157;50.982;18.132;2023-09-19T10:46:54;13.40;;;2.60;;
57317;SDS011;43157;50.982;18.132;2023-09-19T10:49:20;9.20;;;2.50;;
57317;SDS011;43157;50.982;18.132;2023-09-19T10:51:47;6.50;;;1.50;;
57317;SDS011;43157;50.982;18.132;2023-09-19T10:54:19;7.30;;;1.80;;
57317;SDS011;43157;50.982;18.132;2023-09-19T10:56:52;7.50;;;2.00;;
57317;SDS011;43157;50.982;18.132;2023-09-19T10:59:19;8.20;;;1.80;;
57317;SDS011;43157;50.982;18.132;2023-09-19T11:01:53;8.20;;;1.70;;
57317;SDS011;43157;50.982;18.132;2023-09-19T11:04:24;6.20;;;1.80;;
57317;SDS011;43157;50.982;18.132;2023-09-19T11:07:05;4.30;;;1.30;;
57317;SDS011;43157;50.982;18.132;2023-09-19T11:14:54;8.20;;;1.50;;
57317;SDS011;43157;50.982;18.132;2023-09-19T11:31:54;10.50;;;1.50;;
57317;SDS011;43157;50.982;18.132;2023-09-19T11:39:37;5.10;;;1.50;;
57317;SDS011;43157;50.982;18.132;2023-09-19T11:46:00;7.00;;;1.40;;
57317;SDS011;43157;50.982;18.132;2023-09-19T11:48:23;5.10;;;1.60;;
57317;SDS011;43157;50.982;18.132;2023-09-19T11:50:52;7.20;;;1.70;;
57317;SDS011;43157;50.982;18.132;2023-09-19T11:53:19;7.60;;;1.30;;
57317;SDS011;43157;50.982;18.132;2023-09-19T11:55:46;6.10;;;1.40;;
57317;SDS011;43157;50.982;18.132;2023-09-19T11:58:15;7.10;;;1.20;;
57317;SDS011;43157;50.982;18.132;2023-09-19T12:00:42;3.70;;;0.90;;
57317;SDS011;43157;50.982;18.132;2023-09-19T12:03:10;4.90;;;0.90;;
57317;SDS011;43157;50.982;18.132;2023-09-19T12:05:38;10.00;;;1.10;;
57317;SDS011;43157;50.982;18.132;2023-09-19T12:08:05;5.30;;;1.00;;
57317;SDS011;43157;50.982;18.132;2023-09-19T12:10:50;3.80;;;0.70;;
57317;SDS011;43157;50.982;18.132;2023-09-19T12:13:20;6.30;;;0.90;;
57317;SDS011;43157;50.982;18.132;2023-09-19T12:15:46;4.90;;;0.80;;
57317;SDS011;43157;50.982;18.132;2023-09-19T12:18:31;5.30;;;1.00;;
57317;SDS011;43157;50.982;18.132;2023-09-19T12:20:57;3.40;;;0.70;;
57317;SDS011;43157;50.982;18.132;2023-09-19T12:23:24;6.30;;;0.70;;
57317;SDS011;43157;50.982;18.132;2023-09-19T12:25:51;4.80;;;0.80;;
57317;SDS011;43157;50.982;18.132;2023-09-19T12:28:23;3.50;;;0.60;;
57317;SDS011;43157;50.982;18.132;2023-09-19T12:30:52;3.00;;;0.60;;
57317;SDS011;43157;50.982;18.132;2023-09-19T12:33:20;6.20;;;0.80;;
57317;SDS011;43157;50.982;18.132;2023-09-19T12:35:47;3.60;;;0.70;;
57317;SDS011;43157;50.982;18.132;2023-09-19T12:38:28;4.30;;;0.80;;
57317;SDS011;43157;50.982;18.132;2023-09-19T12:40:57;6.10;;;0.70;;
57317;SDS011;43157;50.982;18.132;2023-09-19T12:43:25;4.30;;;0.80;;
57317;SDS011;43157;50.982;18.132;2023-09-19T12:45:52;5.60;;;0.90;;
57317;SDS011;43157;50.982;18.132;2023-09-19T12:48:20;4.00;;;1.00;;
57317;SDS011;43157;50.982;18.132;2023-09-19T12:53:33;4.60;;;1.00;;
57317;SDS011;43157;50.982;18.132;2023-09-19T12:56:05;6.10;;;0.90;;
57317;SDS011;43157;50.982;18.132;2023-09-19T12:58:34;4.00;;;0.70;;
57317;SDS011;43157;50.982;18.132;2023-09-19T13:01:22;5.10;;;0.60;;
57317;SDS011;43157;50.982;18.132;2023-09-19T13:06:50;4.60;;;0.80;;
57317;SDS011;43157;50.982;18.132;2023-09-19T13:09:18;4.10;;;0.80;;
57317;SDS011;43157;50.982;18.132;2023-09-19T13:11:45;8.50;;;2.30;;
57317;SDS011;43157;50.982;18.132;2023-09-19T13:22:01;3.00;;;0.80;;
57317;SDS011;43157;50.982;18.132;2023-09-19T13:24:28;3.90;;;0.70;;
57317;SDS011;43157;50.982;18.132;2023-09-19T13:26:55;7.50;;;0.90;;
57317;SDS011;43157;50.982;18.132;2023-09-19T13:29:22;5.40;;;1.00;;
57317;SDS011;43157;50.982;18.132;2023-09-19T13:31:51;3.80;;;0.80;;
57317;SDS011;43157;50.982;18.132;2023-09-19T13:34:20;4.80;;;0.80;;
57317;SDS011;43157;50.982;18.132;2023-09-19T13:36:46;7.60;;;0.70;;
57317;SDS011;43157;50.982;18.132;2023-09-19T13:39:16;5.00;;;0.80;;
57317;SDS011;43157;50.982;18.132;2023-09-19T13:41:46;6.50;;;0.90;;
57317;SDS011;43157;50.982;18.132;2023-09-19T13:44:13;4.30;;;0.80;;
57317;SDS011;43157;50.982;18.132;2023-09-19T13:46:40;5.10;;;1.00;;
57317;SDS011;43157;50.982;18.132;2023-09-19T13:49:09;4.50;;;0.70;;
57317;SDS011;43157;50.982;18.132;2023-09-19T13:51:35;7.30;;;1.60;;
57317;SDS011;43157;50.982;18.132;2023-09-19T13:54:01;5.00;;;1.10;;
57317;SDS011;43157;50.982;18.132;2023-09-19T13:56:27;4.10;;;0.70;;
57317;SDS011;43157;50.982;18.132;2023-09-19T13:58:54;3.30;;;0.90;;
57317;SDS011;43157;50.982;18.132;2023-09-19T14:01:20;6.40;;;1.10;;
57317;SDS011;43157;50.982;18.132;2023-09-19T14:03:46;6.00;;;0.80;;
57317;SDS011;43157;50.982;18.132;2023-09-19T14:06:13;4.50;;;0.70;;
57317;SDS011;43157;50.982;18.132;2023-09-19T14:08:39;4.30;;;0.80;;
57317;SDS011;43157;50.982;18.132;2023-09-19T14:11:05;4.00;;;0.80;;
57317;SDS011;43157;50.982;18.132;2023-09-19T14:13:34;5.90;;;1.20;;
57317;SDS011;43157;50.982;18.132;2023-09-19T14:16:04;8.90;;;1.40;;
57317;SDS011;43157;50.982;18.132;2023-09-19T14:18:31;6.30;;;1.00;;
57317;SDS011;43157;50.982;18.132;2023-09-19T14:20:57;5.60;;;0.80;;
57317;SDS011;43157;50.982;18.132;2023-09-19T14:23:23;4.60;;;0.60;;
57317;SDS011;43157;50.982;18.132;2023-09-19T14:25:50;3.80;;;0.50;;
57317;SDS011;43157;50.982;18.132;2023-09-19T14:28:17;4.50;;;0.70;;
57317;SDS011;43157;50.982;18.132;2023-09-19T14:30:43;3.90;;;1.00;;
57317;SDS011;43157;50.982;18.132;2023-09-19T14:33:10;3.70;;;0.60;;
57317;SDS011;43157;50.982;18.132;2023-09-19T14:35:39;3.90;;;0.60;;
57317;SDS011;43157;50.982;18.132;2023-09-19T14:38:05;2.10;;;0.50;;
57317;SDS011;43157;50.982;18.132;2023-09-19T14:40:31;4.00;;;0.80;;
57317;SDS011;43157;50.982;18.132;2023-09-19T14:42:58;6.60;;;1.50;;
57317;SDS011;43157;50.982;18.132;2023-09-19T14:45:24;2.80;;;0.70;;
57317;SDS011;43157;50.982;18.132;2023-09-19T14:47:51;2.40;;;0.60;;
57317;SDS011;43157;50.982;18.132;2023-09-19T14:50:21;5.50;;;0.90;;
57317;SDS011;43157;50.982;18.132;2023-09-19T14:52:48;3.50;;;0.70;;
57317;SDS011;43157;50.982;18.132;2023-09-19T14:55:18;4.90;;;1.10;;
57317;SDS011;43157;50.982;18.132;2023-09-19T14:57:48;3.40;;;0.60;;
57317;SDS011;43157;50.982;18.132;2023-09-19T15:00:16;3.40;;;0.70;;
57317;SDS011;43157;50.982;18.132;2023-09-19T15:02:45;2.70;;;0.70;;
57317;SDS011;43157;50.982;18.132;2023-09-19T15:05:13;4.20;;;0.80;;
57317;SDS011;43157;50.982;18.132;2023-09-19T15:07:41;2.90;;;0.60;;
57317;SDS011;43157;50.982;18.132;2023-09-19T15:10:07;5.00;;;0.60;;
57317;SDS011;43157;50.982;18.132;2023-09-19T15:12:36;4.70;;;0.80;;
57317;SDS011;43157;50.982;18.132;2023-09-19T15:15:04;3.70;;;0.70;;
57317;SDS011;43157;50.982;18.132;2023-09-19T15:17:35;3.80;;;0.70;;
57317;SDS011;43157;50.982;18.132;2023-09-19T15:20:01;2.30;;;0.50;;
57317;SDS011;43157;50.982;18.132;2023-09-19T15:22:28;2.80;;;0.70;;
57317;SDS011;43157;50.982;18.132;2023-09-19T15:24:54;3.40;;;0.70;;
57317;SDS011;43157;50.982;18.132;2023-09-19T15:27:22;2.70;;;0.60;;
57317;SDS011;43157;50.982;18.132;2023-09-19T15:29:48;2.60;;;0.70;;
57317;SDS011;43157;50.982;18.132;2023-09-19T15:32:14;5.10;;;0.90;;
57317;SDS011;43157;50.982;18.132;2023-09-19T15:34:40;5.20;;;0.90;;
57317;SDS011;43157;50.982;18.132;2023-09-19T15:37:06;2.60;;;0.60;;
57317;SDS011;43157;50.982;18.132;2023-09-19T15:39:33;4.20;;;1.10;;
57317;SDS011;43157;50.982;18.132;2023-09-19T15:41:59;4.20;;;0.70;;
57317;SDS011;43157;50.982;18.132;2023-09-19T15:44:25;5.40;;;0.70;;
57317;SDS011;43157;50.982;18.132;2023-09-19T15:46:54;4.30;;;0.70;;
57317;SDS011;43157;50.982;18.132;2023-09-19T15:49:20;4.80;;;0.60;;
57317;SDS011;43157;50.982;18.132;2023-09-19T15:51:46;3.80;;;0.60;;
57317;SDS011;43157;50.982;18.132;2023-09-19T15:54:13;5.20;;;0.90;;
57317;SDS011;43157;50.982;18.132;2023-09-19T15:56:40;3.60;;;0.80;;
57317;SDS011;43157;50.982;18.132;2023-09-19T15:59:06;5.40;;;1.00;;